Aviation Digital Data Service (ADDS)

Output produced by METARs form (0214 UTC 16 July 2019)
found at http://www.aviationweather.gov/metar/data/
 
METAR text: KBYH 151858Z 15012G21KT 3SM -RA BR OVC021 26/23 A2994
Conditions at: KBYH (BLYTHEVILLE , AR, US) observed 1858 UTC 15 July 2019
Temperature: 26.0°C (79°F)
Dewpoint: 23.0°C (73°F) [RH = 84%]
Pressure (altimeter): 29.94 inches Hg (1014.0 mb)
Winds: from the SSE (150 degrees) at 14 MPH (12 knots; 6.2 m/s)
gusting to 24 MPH (21 knots; 10.8 m/s)
Visibility: 3 miles ( 5 km)
Ceiling: 2100 feet AGL
Clouds: overcast cloud deck at 2100 feet AGL
Weather: -RA BR  (light rain, mist)

METAR text: KBYH 151751Z 15015G21KT 10SM BKN012 OVC030 25/23 A2995
Conditions at: KBYH (BLYTHEVILLE , AR, US) observed 1751 UTC 15 July 2019
Temperature: 25.0°C (77°F)
Dewpoint: 23.0°C (73°F) [RH = 89%]
Pressure (altimeter): 29.95 inches Hg (1014.3 mb)
Winds: from the SSE (150 degrees) at 17 MPH (15 knots; 7.7 m/s)
gusting to 24 MPH (21 knots; 10.8 m/s)
Visibility: 10 or more miles (16+ km)
Ceiling: 1200 feet AGL
Clouds: broken clouds at 1200 feet AGL
overcast cloud deck at 3000 feet AGL
Weather: no significant weather observed at this time

METAR text: KBYH 151659Z 14011G21KT 3/4SM RA BR BKN007 BKN015 OVC033 24/22 A2996
Conditions at: KBYH (BLYTHEVILLE , AR, US) observed 1659 UTC 15 July 2019
Temperature: 24.0°C (75°F)
Dewpoint: 22.0°C (72°F) [RH = 89%]
Pressure (altimeter): 29.96 inches Hg (1014.6 mb)
Winds: from the SE (140 degrees) at 13 MPH (11 knots; 5.7 m/s)
gusting to 24 MPH (21 knots; 10.8 m/s)
Visibility: 0.75 miles (1.21 km)
Ceiling: 700 feet AGL
Clouds: broken clouds at 700 feet AGL
broken clouds at 1500 feet AGL
overcast cloud deck at 3300 feet AGL
Weather: RA BR  (moderate rain, mist)

METAR text: KBYH 151555Z 14014G24KT 3SM -RA BR BKN011 BKN020 OVC047 24/22 A2996
Conditions at: KBYH (BLYTHEVILLE , AR, US) observed 1555 UTC 15 July 2019
Temperature: 24.0°C (75°F)
Dewpoint: 22.0°C (72°F) [RH = 89%]
Pressure (altimeter): 29.96 inches Hg (1014.6 mb)
Winds: from the SE (140 degrees) at 16 MPH (14 knots; 7.2 m/s)
gusting to 28 MPH (24 knots; 12.3 m/s)
Visibility: 3 miles ( 5 km)
Ceiling: 1100 feet AGL
Clouds: broken clouds at 1100 feet AGL
broken clouds at 2000 feet AGL
overcast cloud deck at 4700 feet AGL
Weather: -RA BR  (light rain, mist)

METAR text: KBYH 151353Z 13013G26KT 1 1/2SM RA BR SCT011 BKN034 OVC050 23/21 A2997
Conditions at: KBYH (BLYTHEVILLE , AR, US) observed 1353 UTC 15 July 2019
Temperature: 23.0°C (73°F)
Dewpoint: 21.0°C (70°F) [RH = 89%]
Pressure (altimeter): 29.97 inches Hg (1015.0 mb)
Winds: from the SE (130 degrees) at 15 MPH (13 knots; 6.7 m/s)
gusting to 30 MPH (26 knots; 13.4 m/s)
Visibility: 1.50 miles (2.41 km)
Ceiling: 3400 feet AGL
Clouds: scattered clouds at 1100 feet AGL
broken clouds at 3400 feet AGL
overcast cloud deck at 5000 feet AGL
Weather: RA BR  (moderate rain, mist)

METAR text: KBYH 151250Z 12014G26KT 4SM -RA BR SCT010 BKN023 OVC050 23/21 A2997
Conditions at: KBYH (BLYTHEVILLE , AR, US) observed 1250 UTC 15 July 2019
Temperature: 23.0°C (73°F)
Dewpoint: 21.0°C (70°F) [RH = 89%]
Pressure (altimeter): 29.97 inches Hg (1015.0 mb)
Winds: from the ESE (120 degrees) at 16 MPH (14 knots; 7.2 m/s)
gusting to 30 MPH (26 knots; 13.4 m/s)
Visibility: 4 miles ( 6 km)
Ceiling: 2300 feet AGL
Clouds: scattered clouds at 1000 feet AGL
broken clouds at 2300 feet AGL
overcast cloud deck at 5000 feet AGL
Weather: -RA BR  (light rain, mist)